Time,TemperatureF,DewpointF,PressureIn,WindDirection,WindDirectionDegrees,WindSpeedMPH,WindSpeedGustMPH,Humidity,HourlyPrecipIn,Conditions,Clouds,dailyrainin,SoftwareType,DateUTC
2013-05-13 00:02:00,40.2,28.6,29.95,North,1,0.0,0.0,63,0.00,,CLR,0.00,VWS V14.01,2013-05-13 04:02:00,
2013-05-13 00:07:00,39.9,28.7,29.95,North,1,0.0,0.0,64,0.00,,CLR,0.00,VWS V14.01,2013-05-13 04:07:00,
2013-05-13 00:13:00,39.9,28.3,29.95,North,1,0.0,0.0,63,0.00,,CLR,0.00,VWS V14.01,2013-05-13 04:13:00,
2013-05-13 00:22:00,40.3,28.3,29.95,North,1,0.0,0.0,62,0.00,,CLR,0.00,VWS V14.01,2013-05-13 04:22:00,
2013-05-13 00:27:00,40.6,28.2,29.95,North,1,0.0,0.0,61,0.00,,CLR,0.00,VWS V14.01,2013-05-13 04:27:00,
2013-05-13 00:32:00,40.6,29.0,29.95,North,1,0.0,0.0,63,0.00,,CLR,0.00,VWS V14.01,2013-05-13 04:32:00,
2013-05-13 00:42:00,39.8,30.1,29.95,North,1,0.0,0.0,68,0.00,,BKN090,0.00,VWS V14.01,2013-05-13 04:42:00,
2013-05-13 00:52:00,39.2,29.5,29.95,North,1,0.0,0.0,68,0.00,,BKN090,0.00,VWS V14.01,2013-05-13 04:52:00,
2013-05-13 00:57:00,39.3,29.6,29.95,North,1,0.0,0.0,68,0.00,,BKN090,0.00,VWS V14.01,2013-05-13 04:57:00,
2013-05-13 01:02:00,39.2,29.5,29.94,North,1,0.0,0.0,68,0.00,,BKN090,0.00,VWS V14.01,2013-05-13 05:02:00,
2013-05-13 01:12:00,38.6,30.4,29.94,North,1,0.0,0.0,72,0.00,,BKN090,0.00,VWS V14.01,2013-05-13 05:12:00,
2013-05-13 01:22:00,38.5,31.0,29.94,North,1,0.0,0.0,74,0.00,,BKN090,0.00,VWS V14.01,2013-05-13 05:22:00,
2013-05-13 01:27:00,38.3,30.8,29.94,North,1,0.0,0.0,74,0.00,,BKN090,0.00,VWS V14.01,2013-05-13 05:27:00,
2013-05-13 01:37:00,38.0,30.8,29.93,North,1,0.0,0.0,75,0.00,,BKN090,0.00,VWS V14.01,2013-05-13 05:37:00,
2013-05-13 01:42:00,37.9,30.7,29.93,North,1,0.0,0.0,75,0.00,,OVC090,0.00,VWS V14.01,2013-05-13 05:42:00,
2013-05-13 01:47:00,37.8,30.6,29.93,North,1,0.0,0.0,75,0.00,,OVC090,0.00,VWS V14.01,2013-05-13 05:47:00,
2013-05-13 01:52:00,37.6,30.4,29.93,North,1,0.0,0.0,75,0.00,,OVC090,0.00,VWS V14.01,2013-05-13 05:52:00,
2013-05-13 01:57:00,37.6,30.7,29.93,North,1,0.0,0.0,76,0.00,,OVC090,0.00,VWS V14.01,2013-05-13 05:57:00,
2013-05-13 02:02:00,37.5,30.6,29.93,North,1,0.0,0.0,76,0.00,,OVC090,0.00,VWS V14.01,2013-05-13 06:02:00,
2013-05-13 02:12:00,37.6,30.4,29.93,North,1,0.0,0.0,75,0.00,,OVC090,0.00,VWS V14.01,2013-05-13 06:12:00,
2013-05-13 02:17:00,37.3,30.4,29.93,North,1,0.0,0.0,76,0.00,,OVC090,0.00,VWS V14.01,2013-05-13 06:17:00,
2013-05-13 02:27:00,36.6,30.1,29.93,North,1,0.0,0.0,77,0.00,,OVC090,0.00,VWS V14.01,2013-05-13 06:27:00,
2013-05-13 02:32:00,36.3,30.1,29.93,North,4,0.0,0.0,78,0.00,,OVC090,0.00,VWS V14.01,2013-05-13 06:32:00,
2013-05-13 02:37:00,36.9,30.4,29.93,SSW,198,0.0,0.0,77,0.00,,OVC090,0.00,VWS V14.01,2013-05-13 06:37:00,
2013-05-13 02:47:00,38.2,29.6,29.93,South,189,0.0,0.0,71,0.00,,OVC095,0.00,VWS V14.01,2013-05-13 06:47:00,
2013-05-13 02:52:00,38.5,29.2,29.93,South,189,0.0,0.0,69,0.00,,OVC095,0.00,VWS V14.01,2013-05-13 06:52:00,
2013-05-13 02:57:00,37.3,28.8,29.93,ENE,73,0.0,0.0,71,0.00,,OVC095,0.00,VWS V14.01,2013-05-13 06:57:00,
2013-05-13 03:07:00,36.2,29.7,29.93,NE,49,0.0,0.0,77,0.00,,OVC095,0.00,VWS V14.01,2013-05-13 07:07:00,
2013-05-13 03:17:00,35.9,30.0,29.93,NE,49,0.0,0.0,79,0.00,,OVC095,0.00,VWS V14.01,2013-05-13 07:17:00,
2013-05-13 03:22:00,35.8,29.9,29.93,NE,49,0.0,0.0,79,0.00,,OVC095,0.00,VWS V14.01,2013-05-13 07:22:00,
2013-05-13 03:27:00,35.6,29.7,29.93,NE,49,0.0,0.0,79,0.00,,OVC095,0.00,VWS V14.01,2013-05-13 07:27:00,
2013-05-13 03:32:00,35.5,30.0,29.93,NE,49,0.0,0.0,80,0.00,,OVC095,0.00,VWS V14.01,2013-05-13 07:32:00,
2013-05-13 03:37:00,35.5,30.0,29.93,NE,49,0.0,0.0,80,0.00,,OVC095,0.00,VWS V14.01,2013-05-13 07:37:00,
2013-05-13 03:42:00,35.6,30.7,29.93,NE,49,0.0,0.0,82,0.00,,OVC095,0.00,VWS V14.01,2013-05-13 07:42:00,
2013-05-13 03:47:00,35.3,30.4,29.94,NE,49,0.0,0.0,82,0.00,,OVC095,0.00,VWS V14.01,2013-05-13 07:47:00,
2013-05-13 03:57:00,34.9,30.3,29.94,NE,47,0.0,0.0,83,0.00,,OVC095,0.00,VWS V14.01,2013-05-13 07:57:00,
2013-05-13 04:02:00,35.2,30.6,29.95,NE,47,0.0,0.0,83,0.00,,OVC095,0.00,VWS V14.01,2013-05-13 08:02:00,
2013-05-13 04:12:00,36.3,31.6,29.95,NE,47,0.0,0.0,83,0.00,,OVC095,0.00,VWS V14.01,2013-05-13 08:12:00,
2013-05-13 04:17:00,36.6,31.6,29.94,NE,48,0.0,0.0,82,0.00,,OVC095,0.00,VWS V14.01,2013-05-13 08:17:00,
2013-05-13 04:22:00,36.8,31.8,29.94,NE,48,0.0,0.0,82,0.00,,OVC095,0.00,VWS V14.01,2013-05-13 08:22:00,
2013-05-13 04:32:00,37.0,31.4,29.95,NE,48,0.0,0.0,80,0.00,,OVC095,0.00,VWS V14.01,2013-05-13 08:32:00,
2013-05-13 04:37:00,37.0,31.4,29.95,NE,48,0.0,0.0,80,0.00,,OVC095,0.00,VWS V14.01,2013-05-13 08:37:00,
2013-05-13 04:42:00,36.9,31.3,29.95,NE,48,0.0,0.0,80,0.00,,BKN090,0.00,VWS V14.01,2013-05-13 08:42:00,
2013-05-13 04:47:00,36.6,31.0,29.94,NE,48,0.0,0.0,80,0.00,,BKN090,0.00,VWS V14.01,2013-05-13 08:47:00,
2013-05-13 04:57:00,36.6,31.0,29.94,NE,48,0.0,0.0,80,0.00,,BKN090,0.00,VWS V14.01,2013-05-13 08:57:00,
2013-05-13 05:02:00,36.6,31.0,29.95,NE,48,0.0,0.0,80,0.00,,BKN090,0.00,VWS V14.01,2013-05-13 09:02:00,
2013-05-13 05:07:00,36.6,31.0,29.95,NE,48,0.0,0.0,80,0.00,,BKN090,0.00,VWS V14.01,2013-05-13 09:07:00,
2013-05-13 05:12:00,36.6,31.0,29.95,NE,48,0.0,0.0,80,0.00,,BKN090,0.00,VWS V14.01,2013-05-13 09:12:00,
2013-05-13 05:17:00,36.5,30.9,29.95,NE,48,0.0,0.0,80,0.00,,BKN090,0.00,VWS V14.01,2013-05-13 09:17:00,
2013-05-13 05:22:00,36.3,30.7,29.95,NE,48,0.0,0.0,80,0.00,,BKN090,0.00,VWS V14.01,2013-05-13 09:22:00,
2013-05-13 05:32:00,36.0,30.4,29.95,NE,48,0.0,0.0,80,0.00,,BKN090,0.00,VWS V14.01,2013-05-13 09:32:00,
2013-05-13 05:37:00,36.0,30.4,29.95,NE,48,0.0,0.0,80,0.00,,BKN090,0.00,VWS V14.01,2013-05-13 09:37:00,
2013-05-13 05:42:00,35.8,30.5,29.95,NE,48,0.0,0.0,81,0.00,,OVC085,0.00,VWS V14.01,2013-05-13 09:42:00,
2013-05-13 05:47:00,35.8,30.5,29.95,NE,48,0.0,0.0,81,0.00,,OVC085,0.00,VWS V14.01,2013-05-13 09:47:00,
2013-05-13 05:52:00,35.6,30.4,29.95,NE,48,0.0,0.0,81,0.00,,OVC085,0.00,VWS V14.01,2013-05-13 09:52:00,
2013-05-13 05:57:00,35.6,30.7,29.95,NE,48,0.0,0.0,82,0.00,,OVC085,0.00,VWS V14.01,2013-05-13 09:57:00,
2013-05-13 06:02:00,36.2,31.2,29.95,NE,48,0.0,0.0,82,0.00,,OVC085,0.00,VWS V14.01,2013-05-13 10:02:00,
2013-05-13 06:12:00,36.3,30.4,29.95,NE,48,0.0,0.0,79,0.00,,OVC085,0.00,VWS V14.01,2013-05-13 10:12:00,
2013-05-13 06:17:00,35.9,30.0,29.95,NE,48,0.0,0.0,79,0.00,,OVC085,0.00,VWS V14.01,2013-05-13 10:17:00,
2013-05-13 06:27:00,35.3,30.1,29.95,NE,48,0.0,0.0,81,0.00,,OVC085,0.00,VWS V14.01,2013-05-13 10:27:00,
2013-05-13 06:32:00,35.2,30.0,29.95,NE,48,0.0,0.0,81,0.00,,OVC085,0.00,VWS V14.01,2013-05-13 10:32:00,
2013-05-13 06:37:00,34.9,30.0,29.95,NE,48,0.0,0.0,82,0.00,,OVC085,0.00,VWS V14.01,2013-05-13 10:37:00,
2013-05-13 06:42:00,34.6,29.7,29.95,NE,48,0.0,0.0,82,0.00,,CLR,0.00,VWS V14.01,2013-05-13 10:42:00,
2013-05-13 06:47:00,34.3,29.4,29.95,NE,48,0.0,0.0,82,0.00,,CLR,0.00,VWS V14.01,2013-05-13 10:47:00,
2013-05-13 06:52:00,34.4,29.8,29.95,NE,48,0.0,0.0,83,0.00,,CLR,0.00,VWS V14.01,2013-05-13 10:52:00,
2013-05-13 07:02:00,35.0,30.7,29.95,NE,48,0.0,0.0,84,0.00,,CLR,0.00,VWS V14.01,2013-05-13 11:02:00,
2013-05-13 07:12:00,35.5,31.1,29.95,NE,54,0.0,0.0,84,0.00,,CLR,0.00,VWS V14.01,2013-05-13 11:12:00,
2013-05-13 07:17:00,36.5,32.4,29.95,NE,54,0.0,0.0,85,0.00,,CLR,0.00,VWS V14.01,2013-05-13 11:17:00,
2013-05-13 07:27:00,38.0,33.0,29.95,NE,54,0.0,0.0,82,0.00,,CLR,0.00,VWS V14.01,2013-05-13 11:27:00,
2013-05-13 07:32:00,38.8,33.8,29.95,NE,54,0.0,0.0,82,0.00,,CLR,0.00,VWS V14.01,2013-05-13 11:32:00,
2013-05-13 07:37:00,39.5,34.2,29.95,NE,54,0.0,0.0,81,0.00,,CLR,0.00,VWS V14.01,2013-05-13 11:37:00,
2013-05-13 07:47:00,38.6,33.0,29.96,NE,54,0.0,0.0,80,0.00,,CLR,0.00,VWS V14.01,2013-05-13 11:47:00,
2013-05-13 07:52:00,38.3,32.7,29.96,NE,51,0.0,0.0,80,0.00,,CLR,0.00,VWS V14.01,2013-05-13 11:52:00,
2013-05-13 07:57:00,38.2,32.9,29.96,NE,51,0.0,0.0,81,0.00,,CLR,0.00,VWS V14.01,2013-05-13 11:57:00,
2013-05-13 08:02:00,38.6,33.3,29.97,NE,51,0.0,0.0,81,0.00,,CLR,0.00,VWS V14.01,2013-05-13 12:02:00,
2013-05-13 08:07:00,39.6,34.0,29.97,NE,51,0.0,0.0,80,0.00,,CLR,0.00,VWS V14.01,2013-05-13 12:07:00,
2013-05-13 08:12:00,40.3,34.3,29.97,NE,51,0.0,0.0,79,0.00,,CLR,0.00,VWS V14.01,2013-05-13 12:12:00,
2013-05-13 08:17:00,41.1,34.5,29.98,NE,51,0.0,0.0,77,0.00,,CLR,0.00,VWS V14.01,2013-05-13 12:17:00,
2013-05-13 08:22:00,42.6,35.6,29.98,NE,51,0.0,0.0,76,0.00,,CLR,0.00,VWS V14.01,2013-05-13 12:22:00,
2013-05-13 08:32:00,45.2,34.5,29.98,NE,51,0.0,0.0,66,0.00,,CLR,0.00,VWS V14.01,2013-05-13 12:32:00,
2013-05-13 08:37:00,45.7,33.4,29.98,ENE,71,0.0,0.0,62,0.00,,CLR,0.00,VWS V14.01,2013-05-13 12:37:00,
2013-05-13 08:42:00,46.4,34.1,29.98,ENE,71,0.0,0.0,62,0.00,,CLR,0.00,VWS V14.01,2013-05-13 12:42:00,
2013-05-13 08:47:00,47.3,32.8,29.98,ENE,71,0.0,0.0,57,0.00,,CLR,0.00,VWS V14.01,2013-05-13 12:47:00,
2013-05-13 08:52:00,48.0,32.2,29.98,ENE,75,0.0,0.0,54,0.00,,CLR,0.00,VWS V14.01,2013-05-13 12:52:00,
2013-05-13 08:57:00,49.1,32.2,29.98,ENE,76,0.0,0.0,52,0.00,,CLR,0.00,VWS V14.01,2013-05-13 12:57:00,
2013-05-13 09:02:00,49.6,30.2,29.99,East,79,0.0,0.0,47,0.00,,CLR,0.00,VWS V14.01,2013-05-13 13:02:00,
2013-05-13 09:12:00,49.4,28.4,29.99,ESE,104,0.0,0.0,44,0.00,,CLR,0.00,VWS V14.01,2013-05-13 13:12:00,
2013-05-13 09:17:00,50.1,29.0,29.99,ESE,103,0.0,0.0,44,0.00,,CLR,0.00,VWS V14.01,2013-05-13 13:17:00,
2013-05-13 09:22:00,50.4,28.8,29.99,ESE,103,0.0,0.0,43,0.00,,CLR,0.00,VWS V14.01,2013-05-13 13:22:00,
2013-05-13 09:27:00,51.0,28.1,29.99,ESE,104,0.0,0.0,41,0.00,,CLR,0.00,VWS V14.01,2013-05-13 13:27:00,
2013-05-13 09:32:00,51.0,28.1,30.00,ESE,106,0.0,0.0,41,0.00,,CLR,0.00,VWS V14.01,2013-05-13 13:32:00,
2013-05-13 09:42:00,51.4,28.5,30.00,ESE,114,0.0,0.0,41,0.00,,CLR,0.00,VWS V14.01,2013-05-13 13:42:00,
2013-05-13 09:47:00,51.7,28.8,30.00,ESE,113,0.0,0.0,41,0.00,,CLR,0.00,VWS V14.01,2013-05-13 13:47:00,
2013-05-13 09:57:00,52.0,27.8,30.00,ESE,113,0.0,0.0,39,0.00,,CLR,0.00,VWS V14.01,2013-05-13 13:57:00,
2013-05-13 10:07:00,52.5,28.3,30.00,ESE,113,0.0,0.0,39,0.00,,CLR,0.00,VWS V14.01,2013-05-13 14:07:00,
2013-05-13 10:12:00,53.8,28.8,30.00,ESE,113,0.0,0.0,38,0.00,,CLR,0.00,VWS V14.01,2013-05-13 14:12:00,
2013-05-13 10:17:00,54.7,29.0,30.00,ESE,114,0.0,0.0,37,0.00,,CLR,0.00,VWS V14.01,2013-05-13 14:17:00,
2013-05-13 10:22:00,53.9,28.9,30.00,ESE,114,0.0,0.0,38,0.00,,CLR,0.00,VWS V14.01,2013-05-13 14:22:00,
2013-05-13 10:27:00,53.9,28.9,30.00,ESE,114,0.0,0.0,38,0.00,,CLR,0.00,VWS V14.01,2013-05-13 14:27:00,
2013-05-13 10:32:00,52.8,29.8,30.00,ESE,114,0.0,0.0,41,0.00,,CLR,0.00,VWS V14.01,2013-05-13 14:32:00,
2013-05-13 10:37:00,53.3,29.6,30.00,ESE,114,0.0,0.0,40,0.00,,CLR,0.00,VWS V14.01,2013-05-13 14:37:00,
2013-05-13 10:42:00,53.5,28.5,30.00,ESE,120,0.0,0.0,38,0.00,,CLR,0.00,VWS V14.01,2013-05-13 14:42:00,
2013-05-13 10:47:00,53.3,28.4,30.00,SW,227,0.0,0.0,38,0.00,,CLR,0.00,VWS V14.01,2013-05-13 14:47:00,
2013-05-13 10:52:00,52.3,28.1,30.00,SW,233,0.0,0.0,39,0.00,,CLR,0.00,VWS V14.01,2013-05-13 14:52:00,
2013-05-13 10:57:00,51.6,26.8,30.00,WNW,296,0.0,0.0,38,0.00,,CLR,0.00,VWS V14.01,2013-05-13 14:57:00,
2013-05-13 11:02:00,51.3,27.8,30.00,WNW,296,0.0,0.0,40,0.00,,CLR,0.00,VWS V14.01,2013-05-13 15:02:00,
2013-05-13 11:12:00,51.7,28.2,30.00,SW,223,0.0,0.0,40,0.00,,CLR,0.00,VWS V14.01,2013-05-13 15:12:00,
2013-05-13 11:17:00,52.0,29.0,30.01,WSW,248,0.0,0.0,41,0.00,,CLR,0.00,VWS V14.01,2013-05-13 15:17:00,
2013-05-13 11:22:00,52.2,26.1,30.01,WNW,302,0.0,0.0,36,0.00,,CLR,0.00,VWS V14.01,2013-05-13 15:22:00,
2013-05-13 11:27:00,52.0,24.5,30.01,North,357,0.0,0.0,34,0.00,,CLR,0.00,VWS V14.01,2013-05-13 15:27:00,
2013-05-13 11:37:00,52.3,24.1,30.01,WSW,248,0.0,0.0,33,0.00,,CLR,0.00,VWS V14.01,2013-05-13 15:37:00,
2013-05-13 11:42:00,52.9,24.6,30.01,West,268,0.0,0.0,33,0.00,,CLR,0.00,VWS V14.01,2013-05-13 15:42:00,
2013-05-13 11:47:00,52.6,25.0,30.01,WSW,250,0.0,0.0,34,0.00,,CLR,0.00,VWS V14.01,2013-05-13 15:47:00,
2013-05-13 11:52:00,53.2,26.3,30.01,SSW,213,0.0,0.0,35,0.00,,CLR,0.00,VWS V14.01,2013-05-13 15:52:00,
2013-05-13 11:57:00,53.3,21.9,30.01,NW,316,0.0,0.0,29,0.00,,CLR,0.00,VWS V14.01,2013-05-13 15:57:00,
2013-05-13 12:02:00,52.9,21.5,30.01,NNE,14,0.0,0.0,29,0.00,,CLR,0.00,VWS V14.01,2013-05-13 16:02:00,
2013-05-13 12:12:00,53.3,23.5,30.01,West,268,0.0,0.0,31,0.00,,CLR,0.00,VWS V14.01,2013-05-13 16:12:00,
2013-05-13 12:17:00,53.5,23.6,30.01,NNW,339,0.0,0.0,31,0.00,,CLR,0.00,VWS V14.01,2013-05-13 16:17:00,
2013-05-13 12:22:00,53.5,22.9,30.01,West,274,0.0,0.0,30,0.00,,CLR,0.00,VWS V14.01,2013-05-13 16:22:00,
2013-05-13 12:27:00,53.6,22.9,30.01,WSW,254,0.0,0.0,30,0.00,,CLR,0.00,VWS V14.01,2013-05-13 16:27:00,
2013-05-13 12:37:00,54.5,21.2,30.01,West,271,0.0,0.0,27,0.00,,CLR,0.00,VWS V14.01,2013-05-13 16:37:00,
2013-05-13 12:42:00,54.5,22.1,30.01,WSW,244,0.0,0.0,28,0.00,,CLR,0.00,VWS V14.01,2013-05-13 16:42:00,
2013-05-13 12:52:00,54.1,20.9,30.00,NW,306,0.0,0.0,27,0.00,,CLR,0.00,VWS V14.01,2013-05-13 16:52:00,
2013-05-13 13:02:00,54.8,19.7,30.00,NW,323,0.0,0.0,25,0.00,,CLR,0.00,VWS V14.01,2013-05-13 17:02:00,
2013-05-13 13:12:00,55.0,20.8,30.00,North,350,0.0,0.0,26,0.00,,CLR,0.00,VWS V14.01,2013-05-13 17:12:00,
2013-05-13 13:17:00,54.8,19.7,30.00,NW,323,0.0,0.0,25,0.00,,CLR,0.00,VWS V14.01,2013-05-13 17:17:00,
2013-05-13 13:27:00,55.6,20.4,30.00,NW,316,0.0,0.0,25,0.00,,CLR,0.00,VWS V14.01,2013-05-13 17:27:00,
2013-05-13 13:32:00,55.4,22.0,30.00,NNW,342,0.0,0.0,27,0.00,,CLR,0.00,VWS V14.01,2013-05-13 17:32:00,
2013-05-13 13:37:00,55.4,20.2,30.00,NNW,346,0.0,0.0,25,0.00,,CLR,0.00,VWS V14.01,2013-05-13 17:37:00,
2013-05-13 13:47:00,56.2,23.5,29.99,NNE,18,0.0,0.0,28,0.00,,CLR,0.00,VWS V14.01,2013-05-13 17:47:00,
2013-05-13 13:52:00,56.3,21.0,29.99,WNW,291,0.0,0.0,25,0.00,,CLR,0.00,VWS V14.01,2013-05-13 17:52:00,
2013-05-13 14:02:00,55.9,20.6,29.99,West,272,0.0,0.0,25,0.00,,CLR,0.00,VWS V14.01,2013-05-13 18:02:00,
2013-05-13 14:07:00,56.3,22.8,29.99,NNE,21,0.0,0.0,27,0.00,,CLR,0.00,VWS V14.01,2013-05-13 18:07:00,
2013-05-13 14:12:00,56.2,20.9,29.99,North,357,0.0,0.0,25,0.00,,CLR,0.00,VWS V14.01,2013-05-13 18:12:00,
2013-05-13 14:17:00,56.2,21.8,29.99,SSW,208,0.0,0.0,26,0.00,,CLR,0.00,VWS V14.01,2013-05-13 18:17:00,
2013-05-13 14:22:00,56.9,23.3,29.99,NNE,24,0.0,0.0,27,0.00,,CLR,0.00,VWS V14.01,2013-05-13 18:22:00,
2013-05-13 14:27:00,56.5,22.0,29.99,NW,325,0.0,0.0,26,0.00,,CLR,0.00,VWS V14.01,2013-05-13 18:27:00,
2013-05-13 14:37:00,56.7,23.1,29.99,North,0,0.0,0.0,27,0.00,,CLR,0.00,VWS V14.01,2013-05-13 18:37:00,
2013-05-13 14:42:00,56.9,24.1,29.99,North,356,0.0,0.0,28,0.00,,BKN050,0.00,VWS V14.01,2013-05-13 18:42:00,
2013-05-13 14:47:00,56.7,22.2,29.98,NNE,14,0.0,0.0,26,0.00,,BKN050,0.00,VWS V14.01,2013-05-13 18:47:00,
2013-05-13 14:57:00,57.3,25.3,29.98,West,265,0.0,0.0,29,0.00,,BKN050,0.00,VWS V14.01,2013-05-13 18:57:00,
2013-05-13 15:02:00,57.3,22.7,29.98,NW,306,0.0,0.0,26,0.00,,BKN050,0.00,VWS V14.01,2013-05-13 19:02:00,
2013-05-13 15:12:00,58.1,24.3,29.98,NNW,336,0.0,0.0,27,0.00,,BKN050,0.00,VWS V14.01,2013-05-13 19:12:00,
2013-05-13 15:17:00,58.1,24.3,29.98,NW,325,0.0,0.0,27,0.00,,BKN050,0.00,VWS V14.01,2013-05-13 19:17:00,
2013-05-13 15:22:00,58.0,22.4,29.98,West,280,0.0,0.0,25,0.00,,BKN050,0.00,VWS V14.01,2013-05-13 19:22:00,
2013-05-13 15:27:00,58.7,23.9,29.98,NNW,339,0.0,0.0,26,0.00,,BKN050,0.00,VWS V14.01,2013-05-13 19:27:00,
2013-05-13 15:32:00,58.7,23.0,29.97,NNE,24,0.0,0.0,25,0.00,,BKN050,0.00,VWS V14.01,2013-05-13 19:32:00,
2013-05-13 15:37:00,58.7,21.0,29.97,West,281,0.0,0.0,23,0.00,,BKN050,0.00,VWS V14.01,2013-05-13 19:37:00,
2013-05-13 15:42:00,58.3,18.6,29.97,NW,322,0.0,0.0,21,0.00,,CLR,0.00,VWS V14.01,2013-05-13 19:42:00,
2013-05-13 15:47:00,58.4,20.8,29.97,NNW,335,0.0,0.0,23,0.00,,CLR,0.00,VWS V14.01,2013-05-13 19:47:00,
2013-05-13 15:57:00,58.3,20.7,29.97,NW,325,0.0,0.0,23,0.00,,CLR,0.00,VWS V14.01,2013-05-13 19:57:00,
2013-05-13 16:02:00,58.4,20.8,29.96,West,277,0.0,0.0,23,0.00,,CLR,0.00,VWS V14.01,2013-05-13 20:02:00,
2013-05-13 16:12:00,59.5,18.4,29.96,West,271,0.0,0.0,20,0.00,,CLR,0.00,VWS V14.01,2013-05-13 20:12:00,
2013-05-13 16:22:00,59.3,19.4,29.96,North,350,0.0,0.0,21,0.00,,CLR,0.00,VWS V14.01,2013-05-13 20:22:00,
2013-05-13 16:27:00,59.5,19.6,29.96,NNW,344,0.0,0.0,21,0.00,,CLR,0.00,VWS V14.01,2013-05-13 20:27:00,
2013-05-13 16:32:00,59.3,17.1,29.95,NNE,27,0.0,0.0,19,0.00,,CLR,0.00,VWS V14.01,2013-05-13 20:32:00,
2013-05-13 16:37:00,59.5,18.4,29.95,North,1,0.0,0.0,20,0.00,,CLR,0.00,VWS V14.01,2013-05-13 20:37:00,
2013-05-13 16:42:00,59.5,17.2,29.95,West,281,0.0,0.0,19,0.00,,CLR,0.00,VWS V14.01,2013-05-13 20:42:00,
2013-05-13 16:52:00,59.8,17.5,29.95,West,277,0.0,0.0,19,0.00,,CLR,0.00,VWS V14.01,2013-05-13 20:52:00,
2013-05-13 16:57:00,59.9,16.3,29.95,WSW,254,0.0,0.0,18,0.00,,CLR,0.00,VWS V14.01,2013-05-13 20:57:00,
2013-05-13 17:02:00,60.4,19.2,29.95,NNW,342,0.0,0.0,20,0.00,,CLR,0.00,VWS V14.01,2013-05-13 21:02:00,
2013-05-13 17:12:00,59.9,13.6,29.95,NNW,342,0.0,0.0,16,0.00,,CLR,0.00,VWS V14.01,2013-05-13 21:12:00,
2013-05-13 17:17:00,59.8,14.9,29.94,North,1,0.0,0.0,17,0.00,,CLR,0.00,VWS V14.01,2013-05-13 21:17:00,
2013-05-13 17:22:00,60.2,20.1,29.94,NW,309,0.0,0.0,21,0.00,,CLR,0.00,VWS V14.01,2013-05-13 21:22:00,
2013-05-13 17:32:00,59.6,14.8,29.94,NNE,24,0.0,0.0,17,0.00,,CLR,0.00,VWS V14.01,2013-05-13 21:32:00,
2013-05-13 17:42:00,59.5,14.7,29.94,North,353,0.0,0.0,17,0.00,,CLR,0.00,VWS V14.01,2013-05-13 21:42:00,
2013-05-13 17:52:00,60.1,16.5,29.94,NE,40,0.0,0.0,18,0.00,,CLR,0.00,VWS V14.01,2013-05-13 21:52:00,
2013-05-13 17:57:00,60.2,16.6,29.94,North,11,0.0,0.0,18,0.00,,CLR,0.00,VWS V14.01,2013-05-13 21:57:00,
2013-05-13 18:02:00,60.1,16.5,29.93,NNE,20,0.0,0.0,18,0.00,,CLR,0.00,VWS V14.01,2013-05-13 22:02:00,
2013-05-13 18:12:00,59.9,16.3,29.93,North,3,0.0,0.0,18,0.00,,CLR,0.00,VWS V14.01,2013-05-13 22:12:00,
2013-05-13 18:17:00,60.4,19.2,29.93,NNE,13,0.0,0.0,20,0.00,,CLR,0.00,VWS V14.01,2013-05-13 22:17:00,
2013-05-13 18:22:00,60.4,18.0,29.93,NE,48,0.0,0.0,19,0.00,,CLR,0.00,VWS V14.01,2013-05-13 22:22:00,
2013-05-13 18:27:00,60.7,17.0,29.93,West,272,0.0,0.0,18,0.00,,CLR,0.00,VWS V14.01,2013-05-13 22:27:00,
2013-05-13 18:37:00,59.9,16.3,29.93,North,0,0.0,0.0,18,0.00,,CLR,0.00,VWS V14.01,2013-05-13 22:37:00,
2013-05-13 18:42:00,60.2,17.8,29.93,NNW,342,0.0,0.0,19,0.00,,CLR,0.00,VWS V14.01,2013-05-13 22:42:00,
2013-05-13 18:47:00,59.9,17.6,29.93,NW,322,0.0,0.0,19,0.00,,CLR,0.00,VWS V14.01,2013-05-13 22:47:00,
2013-05-13 18:57:00,60.4,19.2,29.93,North,1,0.0,0.0,20,0.00,,CLR,0.00,VWS V14.01,2013-05-13 22:57:00,
2013-05-13 19:07:00,61.8,20.3,29.92,ENE,59,0.0,0.0,20,0.00,,CLR,0.00,VWS V14.01,2013-05-13 23:07:00,
2013-05-13 19:12:00,61.6,20.2,29.92,ENE,66,0.0,0.0,20,0.00,,CLR,0.00,VWS V14.01,2013-05-13 23:12:00,
2013-05-13 19:17:00,61.5,20.1,29.92,ENE,73,0.0,0.0,20,0.00,,CLR,0.00,VWS V14.01,2013-05-13 23:17:00,
2013-05-13 19:22:00,61.5,21.2,29.92,ENE,78,0.0,0.0,21,0.00,,CLR,0.00,VWS V14.01,2013-05-13 23:22:00,
2013-05-13 19:27:00,61.5,21.2,29.92,ENE,78,0.0,0.0,21,0.00,,CLR,0.00,VWS V14.01,2013-05-13 23:27:00,
2013-05-13 19:37:00,61.0,19.7,29.92,ENE,78,0.0,0.0,20,0.00,,CLR,0.00,VWS V14.01,2013-05-13 23:37:00,
2013-05-13 19:42:00,60.4,22.5,29.92,ENE,78,0.0,0.0,23,0.00,,CLR,0.00,VWS V14.01,2013-05-13 23:42:00,
2013-05-13 19:47:00,59.6,21.8,29.92,ENE,78,0.0,0.0,23,0.00,,CLR,0.00,VWS V14.01,2013-05-13 23:47:00,
2013-05-13 19:52:00,59.2,22.5,29.92,ENE,78,0.0,0.0,24,0.00,,CLR,0.00,VWS V14.01,2013-05-13 23:52:00,
2013-05-13 20:02:00,58.7,22.0,29.92,ENE,78,0.0,0.0,24,0.00,,CLR,0.00,VWS V14.01,2013-05-14 00:02:00,
2013-05-13 20:07:00,58.4,22.7,29.92,ENE,78,0.0,0.0,25,0.00,,CLR,0.00,VWS V14.01,2013-05-14 00:07:00,
2013-05-13 20:12:00,58.1,22.5,29.92,ENE,78,0.0,0.0,25,0.00,,CLR,0.00,VWS V14.01,2013-05-14 00:12:00,
2013-05-13 20:17:00,58.0,21.4,29.92,ENE,78,0.0,0.0,24,0.00,,CLR,0.00,VWS V14.01,2013-05-14 00:17:00,
2013-05-13 20:22:00,58.0,21.4,29.92,ENE,78,0.0,0.0,24,0.00,,CLR,0.00,VWS V14.01,2013-05-14 00:22:00,
2013-05-13 20:27:00,58.0,21.4,29.92,ENE,78,0.0,0.0,24,0.00,,CLR,0.00,VWS V14.01,2013-05-14 00:27:00,
2013-05-13 20:32:00,57.6,23.0,29.92,ENE,78,0.0,0.0,26,0.00,,CLR,0.00,VWS V14.01,2013-05-14 00:32:00,
2013-05-13 20:37:00,57.0,24.2,29.92,ENE,78,0.0,0.0,28,0.00,,CLR,0.00,VWS V14.01,2013-05-14 00:37:00,
2013-05-13 20:42:00,56.5,23.8,29.92,ENE,78,0.0,0.0,28,0.00,,CLR,0.00,VWS V14.01,2013-05-14 00:42:00,
2013-05-13 20:47:00,56.3,23.6,29.92,East,82,0.0,0.0,28,0.00,,CLR,0.00,VWS V14.01,2013-05-14 00:47:00,
2013-05-13 20:52:00,56.2,22.7,29.92,East,82,0.0,0.0,27,0.00,,CLR,0.00,VWS V14.01,2013-05-14 00:52:00,
2013-05-13 20:57:00,56.0,22.5,29.92,East,83,0.0,0.0,27,0.00,,CLR,0.00,VWS V14.01,2013-05-14 00:57:00,
2013-05-13 21:02:00,55.7,22.3,29.92,East,83,0.0,0.0,27,0.00,,CLR,0.00,VWS V14.01,2013-05-14 01:02:00,
2013-05-13 21:07:00,55.6,21.3,29.92,East,83,0.0,0.0,26,0.00,,CLR,0.00,VWS V14.01,2013-05-14 01:07:00,
2013-05-13 21:12:00,55.4,22.0,29.92,East,83,0.0,0.0,27,0.00,,CLR,0.00,VWS V14.01,2013-05-14 01:12:00,
2013-05-13 21:17:00,55.0,21.6,29.92,East,85,0.0,0.0,27,0.00,,CLR,0.00,VWS V14.01,2013-05-14 01:17:00,
2013-05-13 21:22:00,54.5,22.1,29.92,East,85,0.0,0.0,28,0.00,,CLR,0.00,VWS V14.01,2013-05-14 01:22:00,
2013-05-13 21:27:00,54.2,21.8,29.92,East,85,0.0,0.0,28,0.00,,CLR,0.00,VWS V14.01,2013-05-14 01:27:00,
2013-05-13 21:32:00,54.2,21.8,29.92,East,95,0.0,0.0,28,0.00,,CLR,0.00,VWS V14.01,2013-05-14 01:32:00,
2013-05-13 21:37:00,54.1,22.6,29.92,East,95,0.0,0.0,29,0.00,,CLR,0.00,VWS V14.01,2013-05-14 01:37:00,
2013-05-13 21:42:00,53.9,22.4,29.92,East,96,0.0,0.0,29,0.00,,CLR,0.00,VWS V14.01,2013-05-14 01:42:00,
2013-05-13 21:52:00,53.6,22.9,29.92,East,100,0.0,0.0,30,0.00,,CLR,0.00,VWS V14.01,2013-05-14 01:52:00,
2013-05-13 21:57:00,53.5,22.9,29.92,ESE,102,0.0,0.0,30,0.00,,CLR,0.00,VWS V14.01,2013-05-14 01:57:00,
2013-05-13 22:02:00,53.3,21.9,29.92,ESE,104,0.0,0.0,29,0.00,,CLR,0.00,VWS V14.01,2013-05-14 02:02:00,
2013-05-13 22:07:00,53.1,23.3,29.92,ESE,104,0.0,0.0,31,0.00,,CLR,0.00,VWS V14.01,2013-05-14 02:07:00,
2013-05-13 22:17:00,52.6,23.6,29.92,ESE,104,0.0,0.0,32,0.00,,CLR,0.00,VWS V14.01,2013-05-14 02:17:00,
2013-05-13 22:27:00,52.6,24.3,29.92,ESE,112,0.0,0.0,33,0.00,,CLR,0.00,VWS V14.01,2013-05-14 02:27:00,
2013-05-13 22:32:00,52.6,23.6,29.92,ESE,114,0.0,0.0,32,0.00,,CLR,0.00,VWS V14.01,2013-05-14 02:32:00,
2013-05-13 22:37:00,52.5,23.5,29.92,SE,124,0.0,0.0,32,0.00,,CLR,0.00,VWS V14.01,2013-05-14 02:37:00,
2013-05-13 22:47:00,52.2,23.2,29.92,ESE,121,0.0,0.0,32,0.00,,CLR,0.00,VWS V14.01,2013-05-14 02:47:00,
2013-05-13 22:52:00,52.2,24.0,29.92,ESE,120,0.0,0.0,33,0.00,,CLR,0.00,VWS V14.01,2013-05-14 02:52:00,
2013-05-13 22:57:00,52.2,24.0,29.92,ESE,120,0.0,0.0,33,0.00,,CLR,0.00,VWS V14.01,2013-05-14 02:57:00,
2013-05-13 23:02:00,52.2,24.7,29.92,ESE,120,0.0,0.0,34,0.00,,CLR,0.00,VWS V14.01,2013-05-14 03:02:00,
2013-05-13 23:07:00,52.3,24.8,29.92,ESE,121,0.0,0.0,34,0.00,,CLR,0.00,VWS V14.01,2013-05-14 03:07:00,
2013-05-13 23:12:00,52.3,25.5,29.92,ESE,119,0.0,0.0,35,0.00,,CLR,0.00,VWS V14.01,2013-05-14 03:12:00,
2013-05-13 23:17:00,52.3,25.5,29.91,ESE,123,0.0,0.0,35,0.00,,CLR,0.00,VWS V14.01,2013-05-14 03:17:00,
2013-05-13 23:22:00,52.5,25.0,29.91,ESE,121,0.0,0.0,34,0.00,,CLR,0.00,VWS V14.01,2013-05-14 03:22:00,
2013-05-13 23:32:00,52.5,22.8,29.91,SE,126,0.0,0.0,31,0.00,,CLR,0.00,VWS V14.01,2013-05-14 03:32:00,
2013-05-13 23:37:00,52.3,23.3,29.91,SE,124,0.0,0.0,32,0.00,,CLR,0.00,VWS V14.01,2013-05-14 03:37:00,
2013-05-13 23:42:00,52.2,24.7,29.91,ESE,117,0.0,0.0,34,0.00,,OVC100,0.00,VWS V14.01,2013-05-14 03:42:00,
2013-05-13 23:47:00,52.0,25.2,29.92,ESE,119,0.0,0.0,35,0.00,,OVC100,0.00,VWS V14.01,2013-05-14 03:47:00,
2013-05-13 23:52:00,51.9,25.1,29.92,ESE,117,0.0,0.0,35,0.00,,OVC100,0.00,VWS V14.01,2013-05-14 03:52:00,